Time;durP1;ratioP1;P1;durP2;ratioP2;P2;SDS_P1;SDS_P2;PMS_P1;PMS_P2;Temp;Humidity;BMP_temperature;BMP_pressure;BME280_temperature;BME280_humidity;BME280_pressure;Samples;Min_cycle;Max_cycle;Signal;HPM_P1;HPM_P2
2021/07/19 00:02:25;;;;;;;7.13;5.22;;;;;;;23.33;56.11;100252.69;4916511;28;96907;-84
2021/07/19 00:04:50;;;;;;;8.82;4.60;;;;;;;23.19;56.66;100261.09;4900848;28;96982;-85
2021/07/19 00:07:16;;;;;;;8.52;5.35;;;;;;;23.19;56.51;100255.75;4916129;28;99857;-85
2021/07/19 00:09:44;;;;;;;8.98;5.00;;;;;;;23.12;56.92;100257.25;4916751;28;98320;-85
2021/07/19 00:12:11;;;;;;;8.82;5.07;;;;;;;23.17;56.74;100265.72;4900752;28;96766;-87
2021/07/19 00:14:36;;;;;;;5.82;4.85;;;;;;;23.14;56.63;100266.00;4900623;28;96860;-85
2021/07/19 00:17:02;;;;;;;8.98;5.38;;;;;;;23.16;56.72;100262.22;4916096;28;101508;-85
2021/07/19 00:19:28;;;;;;;7.80;5.15;;;;;;;23.10;56.87;100264.59;4915253;28;98030;-85
2021/07/19 00:21:54;;;;;;;9.27;5.47;;;;;;;23.05;57.35;100271.16;4915104;28;96653;-85
2021/07/19 00:24:19;;;;;;;13.50;6.07;;;;;;;23.01;57.19;100274.25;4916066;28;96958;-84
2021/07/19 00:26:45;;;;;;;9.30;5.68;;;;;;;23.01;57.21;100271.59;4900120;28;101131;-84
2021/07/19 00:29:11;;;;;;;6.82;5.50;;;;;;;22.85;57.73;100269.34;4916037;28;101039;-88
2021/07/19 00:31:36;;;;;;;8.38;5.30;;;;;;;22.96;57.47;100268.44;4915960;28;96783;-86
2021/07/19 00:34:03;;;;;;;7.70;5.25;;;;;;;22.90;57.62;100275.16;4916524;28;96918;-83
2021/07/19 00:36:29;;;;;;;8.85;5.50;;;;;;;22.92;57.46;100275.88;4915599;28;101384;-84
2021/07/19 00:38:57;;;;;;;10.88;5.50;;;;;;;22.97;57.26;100270.97;4916185;28;101165;-84
2021/07/19 00:41:22;;;;;;;8.35;5.22;;;;;;;22.95;57.31;100269.41;4899791;28;97017;-85
2021/07/19 00:43:49;;;;;;;7.88;5.50;;;;;;;22.86;57.61;100273.69;4916174;28;96844;-84
2021/07/19 00:46:15;;;;;;;10.80;5.88;;;;;;;22.72;57.92;100261.53;4915027;28;101507;-90
2021/07/19 00:48:43;;;;;;;7.78;5.57;;;;;;;22.81;57.89;100270.59;4915865;28;99017;-85
2021/07/19 00:51:10;;;;;;;7.00;5.20;;;;;;;22.83;57.80;100272.16;4900479;28;97094;-85
2021/07/19 00:53:36;;;;;;;10.55;4.97;;;;;;;22.77;57.99;100269.16;4915844;28;97230;-85
2021/07/19 00:56:02;;;;;;;11.27;6.15;;;;;;;22.67;58.33;100282.47;4915604;28;101672;-85
2021/07/19 00:58:30;;;;;;;9.18;6.57;;;;;;;22.65;58.43;100295.13;4899399;28;101198;-85
2021/07/19 01:00:58;;;;;;;11.18;5.95;;;;;;;22.59;58.58;100288.47;4900277;28;96637;-85
2021/07/19 01:03:25;;;;;;;7.35;5.72;;;;;;;22.50;59.14;100291.91;4899952;28;96982;-85
2021/07/19 01:05:54;;;;;;;9.48;5.82;;;;;;;22.49;59.20;100298.25;4899593;28;101109;-84
2021/07/19 01:08:23;;;;;;;9.15;5.95;;;;;;;22.52;59.11;100291.81;4915889;28;97941;-85
2021/07/19 01:10:49;;;;;;;10.40;5.80;;;;;;;22.57;59.00;100287.75;4915263;28;97130;-86
2021/07/19 01:13:15;;;;;;;8.15;6.10;;;;;;;22.51;59.25;100285.59;4915577;28;97034;-87
2021/07/19 01:15:41;;;;;;;14.38;5.90;;;;;;;22.50;59.02;100289.25;4915331;28;101557;-84
2021/07/19 01:18:09;;;;;;;9.80;6.05;;;;;;;22.34;59.49;100287.03;4899521;28;100212;-86
2021/07/19 01:20:42;;;;;;;9.23;5.68;;;;;;;22.21;59.86;100289.00;4899078;28;96964;-86
2021/07/19 01:23:24;;;;;;;7.22;5.10;;;;;;;22.31;59.72;100281.94;4916206;28;97189;-85
2021/07/19 01:25:50;;;;;;;;;;;;;;;22.14;60.47;100277.97;4917278;28;98537;-85
2021/07/19 01:28:38;;;;;;;10.50;5.47;;;;;;;22.23;nan;100272.88;4899499;28;101123;-88
2021/07/19 01:31:19;;;;;;;9.55;5.40;;;;;;;22.21;59.94;100283.66;4899251;28;96610;-85
2021/07/19 01:33:47;;;;;;;7.43;5.35;;;;;;;22.19;59.94;100279.44;4899723;28;96793;-85
2021/07/19 01:36:20;;;;;;;12.15;5.63;;;;;;;22.16;60.21;100291.19;4914830;28;101681;-85
2021/07/19 01:39:12;;;;;;;6.78;5.30;;;;;;;22.25;60.11;100277.13;4901455;28;97619;-85
2021/07/19 01:41:38;;;;;;;8.68;5.93;;;;;;;22.21;60.10;100283.66;4898975;28;96647;-86
2021/07/19 01:44:05;;;;;;;11.15;6.43;;;;;;;22.27;60.08;100284.97;4915412;28;96875;-85
2021/07/19 01:46:31;;;;;;;8.65;5.85;;;;;;;22.11;60.71;100288.06;4898566;28;101313;-85
2021/07/19 01:48:59;;;;;;;10.75;6.20;;;;;;;22.05;60.81;100286.75;4899054;28;101144;-85
2021/07/19 01:51:27;;;;;;;9.73;5.57;;;;;;;22.08;60.74;100291.84;4899020;28;97187;-85
2021/07/19 01:53:58;;;;;;;9.87;6.17;;;;;;;22.04;60.83;100286.84;4900584;28;96623;-85
2021/07/19 01:56:26;;;;;;;10.85;5.68;;;;;;;22.10;60.45;100289.03;4898670;28;100442;-86
2021/07/19 01:58:56;;;;;;;11.65;6.07;;;;;;;22.06;60.80;100293.78;4898986;28;101427;-86
2021/07/19 02:01:25;;;;;;;9.00;6.25;;;;;;;21.99;60.87;100297.94;4914538;28;96722;-86
2021/07/19 02:03:53;;;;;;;9.55;5.68;;;;;;;21.91;61.41;100303.06;4899889;28;97008;-85
2021/07/19 02:06:19;;;;;;;10.95;6.28;;;;;;;21.78;61.81;100289.00;4898715;28;100999;-87
2021/07/19 02:09:01;;;;;;;7.82;5.20;;;;;;;21.75;61.90;100294.59;4914868;28;101701;-85
2021/07/19 02:11:34;;;;;;;7.70;5.28;;;;;;;21.76;61.90;100291.81;4901073;28;96780;-86
2021/07/19 02:14:04;;;;;;;9.77;5.57;;;;;;;21.76;61.84;100294.47;4899275;28;96832;-85
2021/07/19 02:16:31;;;;;;;10.13;6.10;;;;;;;21.77;61.76;100293.50;4914339;28;101557;-86
2021/07/19 02:18:58;;;;;;;10.23;6.25;;;;;;;21.81;62.11;100286.06;4914134;28;101556;-85
2021/07/19 02:21:28;;;;;;;12.60;7.05;;;;;;;21.75;61.86;100291.91;4914902;28;96733;-86
2021/07/19 02:24:12;;;;;;;12.35;7.75;;;;;;;21.64;62.27;100292.78;4915015;28;96845;-85
2021/07/19 02:26:48;;;;;;;10.30;6.78;;;;;;;21.63;62.25;100294.59;4899183;28;101357;-85
2021/07/19 02:29:15;;;;;;;10.68;6.57;;;;;;;21.72;61.87;100294.84;4913952;28;101682;-85
2021/07/19 02:31:42;;;;;;;12.77;6.50;;;;;;;21.64;62.13;100292.78;4913869;28;96748;-84
2021/07/19 02:34:09;;;;;;;11.77;6.45;;;;;;;21.69;62.00;100295.94;4914504;28;96786;-85
2021/07/19 02:36:35;;;;;;;13.07;8.02;;;;;;;21.60;62.10;100296.69;4913588;28;101002;-85
2021/07/19 02:39:00;;;;;;;7.72;5.80;;;;;;;21.55;62.17;100294.38;4913772;28;101133;-86
2021/07/19 02:41:27;;;;;;;10.40;6.15;;;;;;;21.64;62.19;100303.47;4897756;28;96668;-87
2021/07/19 02:44:02;;;;;;;8.15;6.28;;;;;;;21.62;62.04;100300.94;4899023;28;96865;-85
2021/07/19 02:46:41;;;;;;;14.63;6.20;;;;;;;21.64;62.07;100293.66;4913643;28;100976;-85
2021/07/19 02:49:10;;;;;;;8.27;6.47;;;;;;;21.55;62.36;100293.53;4914649;28;101258;-85
2021/07/19 02:51:37;;;;;;;11.02;6.57;;;;;;;21.50;62.68;100288.56;4913493;28;97219;-85
2021/07/19 02:54:16;;;;;;;12.55;7.07;;;;;;;21.37;62.93;100291.34;4914502;28;96736;-85
2021/07/19 02:56:42;;;;;;;10.18;6.38;;;;;;;21.41;62.76;100291.94;4897482;28;100172;-86
2021/07/19 02:59:08;;;;;;;11.68;6.40;;;;;;;21.37;62.90;100286.00;4897991;28;101644;-85
2021/07/19 03:01:35;;;;;;;14.23;8.40;;;;;;;21.39;62.93;100288.56;4898064;28;97004;-86
2021/07/19 03:04:01;;;;;;;11.65;6.57;;;;;;;21.38;62.76;100293.06;4914452;28;96977;-86
2021/07/19 03:06:35;;;;;;;9.68;7.00;;;;;;;21.39;62.95;100297.44;4898246;28;101920;-86
2021/07/19 03:09:04;;;;;;;8.23;6.47;;;;;;;21.39;62.95;100297.44;4914332;28;100180;-84
2021/07/19 03:11:48;;;;;;;11.85;6.97;;;;;;;21.29;62.95;100293.75;4915098;28;97017;-83
2021/07/19 03:14:24;;;;;;;16.83;6.80;;;;;;;21.28;63.10;100305.41;4914785;28;97084;-84
2021/07/19 03:16:53;;;;;;;12.55;7.15;;;;;;;21.15;63.69;100305.53;4913356;28;98077;-83
2021/07/19 03:19:20;;;;;;;8.93;6.30;;;;;;;21.20;63.56;100305.16;4913320;28;100580;-84
2021/07/19 03:21:47;;;;;;;11.82;6.65;;;;;;;21.28;63.36;100308.06;4913813;28;96635;-83
2021/07/19 03:24:22;;;;;;;11.88;6.88;;;;;;;21.25;63.31;100294.97;4914573;28;96860;-84
2021/07/19 03:26:49;;;;;;;7.55;5.90;;;;;;;21.28;63.54;100294.72;4913598;28;98501;-84
2021/07/19 03:29:16;;;;;;;14.20;6.28;;;;;;;21.32;63.24;100277.50;4913623;28;100556;-83
2021/07/19 03:31:55;;;;;;;14.43;6.97;;;;;;;21.31;63.09;100278.47;4913989;28;97207;-83
2021/07/19 03:34:22;;;;;;;12.48;6.80;;;;;;;21.40;63.04;100288.44;4914277;28;97050;-83
2021/07/19 03:36:53;;;;;;;9.60;5.95;;;;;;;21.47;62.78;100296.84;4912667;28;101153;-83
2021/07/19 03:39:22;;;;;;;9.65;5.47;;;;;;;21.39;63.15;100308.09;4913102;28;101637;-84
2021/07/19 03:41:58;;;;;;;11.50;6.13;;;;;;;21.45;62.62;100317.47;4898305;28;96855;-84
2021/07/19 03:44:25;;;;;;;12.52;6.50;;;;;;;21.57;62.62;100310.28;4913708;28;96968;-83
2021/07/19 03:46:51;;;;;;;15.65;5.95;;;;;;;21.63;62.31;100312.47;4913180;28;101734;-84
2021/07/19 03:49:18;;;;;;;8.50;5.85;;;;;;;21.66;62.28;100304.19;4913493;28;100335;-84
2021/07/19 03:51:49;;;;;;;13.00;6.70;;;;;;;21.64;62.16;100306.13;4913103;28;97118;-84
2021/07/19 03:54:16;;;;;;;12.80;5.35;;;;;;;21.76;61.87;100298.94;4913467;28;96929;-83
2021/07/19 03:56:42;;;;;;;10.20;5.78;;;;;;;21.72;62.04;100309.03;4915937;28;101586;-84
2021/07/19 03:59:10;;;;;;;8.15;5.15;;;;;;;21.77;61.88;100306.00;4901207;28;101484;-83
2021/07/19 04:01:40;;;;;;;11.45;4.90;;;;;;;21.78;61.93;100311.22;4916397;28;97097;-83
2021/07/19 04:04:08;;;;;;;7.22;4.75;;;;;;;21.98;61.40;100309.59;4900956;28;97040;-84
2021/07/19 04:06:45;;;;;;;8.95;5.93;;;;;;;21.88;61.40;100306.84;4915805;28;101640;-83
2021/07/19 04:09:11;;;;;;;8.77;4.85;;;;;;;22.01;61.12;100304.00;4900440;28;100243;-84
2021/07/19 04:11:39;;;;;;;9.50;5.30;;;;;;;22.14;60.85;100302.03;4916540;28;96482;-84
2021/07/19 04:14:11;;;;;;;11.60;5.45;;;;;;;22.02;61.32;100302.16;4916855;28;96769;-83
2021/07/19 04:16:38;;;;;;;12.50;5.70;;;;;;;22.07;61.24;100305.31;4899807;28;101869;-84
2021/07/19 04:19:04;;;;;;;10.98;5.65;;;;;;;22.27;61.06;100306.38;4915893;28;101594;-83
2021/07/19 04:21:32;;;;;;;10.18;4.95;;;;;;;22.37;60.67;100299.28;4916416;28;96736;-88
2021/07/19 04:23:59;;;;;;;7.82;4.72;;;;;;;22.32;60.78;100302.34;4900763;28;96972;-83
2021/07/19 04:26:31;;;;;;;8.70;5.15;;;;;;;22.45;60.44;100303.97;4901840;28;101662;-86
2021/07/19 04:29:03;;;;;;;10.05;4.85;;;;;;;22.51;60.49;100306.13;4916921;28;101136;-83
2021/07/19 04:31:34;;;;;;;12.75;5.28;;;;;;;22.60;60.28;100311.59;4915689;28;96642;-87
2021/07/19 04:34:02;;;;;;;14.15;5.22;;;;;;;22.64;60.47;100306.81;4916751;28;96585;-82
2021/07/19 04:36:36;;;;;;;8.50;4.88;;;;;;;22.74;60.44;100304.19;4900290;28;100149;-84
2021/07/19 04:39:02;;;;;;;10.85;5.30;;;;;;;22.65;60.54;100302.31;4899848;28;102003;-83
2021/07/19 04:41:31;;;;;;;9.55;5.57;;;;;;;22.52;60.90;100315.88;4916539;28;96616;-85
2021/07/19 04:43:56;;;;;;;11.18;5.25;;;;;;;22.51;61.14;100312.34;4899777;28;96988;-83
2021/07/19 04:46:22;;;;;;;10.93;5.50;;;;;;;22.58;60.77;100308.19;4916205;28;97651;-83
2021/07/19 04:48:47;;;;;;;8.00;4.90;;;;;;;22.69;60.52;100312.63;4915863;28;98285;-84
2021/07/19 04:51:13;;;;;;;8.98;5.18;;;;;;;22.76;60.45;100319.13;4899816;28;96692;-83
2021/07/19 04:53:39;;;;;;;12.02;5.15;;;;;;;22.88;60.22;100317.25;4915252;28;96884;-83
2021/07/19 04:56:05;;;;;;;8.18;4.90;;;;;;;22.76;60.19;100320.97;4899058;28;101118;-83
2021/07/19 04:58:32;;;;;;;8.35;5.13;;;;;;;22.81;60.16;100310.72;4899498;28;99992;-85
2021/07/19 05:01:00;;;;;;;9.05;5.13;;;;;;;22.97;59.96;100313.81;4915908;28;96567;-84
2021/07/19 05:03:27;;;;;;;9.70;5.35;;;;;;;23.24;59.65;100315.94;4916062;28;96888;-83
2021/07/19 05:05:54;;;;;;;7.95;5.68;;;;;;;23.66;58.52;100313.13;4914925;28;98387;-85
2021/07/19 05:08:20;;;;;;;8.30;5.47;;;;;;;23.85;57.98;100315.06;4899054;28;101138;-85
2021/07/19 05:10:47;;;;;;;10.98;5.32;;;;;;;24.03;57.58;100308.97;4915259;28;96951;-84
2021/07/19 05:13:14;;;;;;;9.68;5.32;;;;;;;24.15;56.92;100289.97;4884207;28;97103;-85
2021/07/19 05:15:41;;;;;;;11.93;5.45;;;;;;;24.30;56.53;100292.22;4898681;28;101475;-87
2021/07/19 05:18:10;;;;;;;10.02;5.85;;;;;;;24.25;56.73;100292.63;4915270;28;100981;-85
2021/07/19 05:20:37;;;;;;;7.88;5.25;;;;;;;24.47;56.40;100293.38;4914692;28;96882;-86
2021/07/19 05:23:03;;;;;;;12.75;5.13;;;;;;;24.68;55.87;100287.84;4915426;28;96630;-85
2021/07/19 05:25:30;;;;;;;9.77;5.45;;;;;;;24.85;55.36;100285.25;4899196;28;100513;-84
2021/07/19 05:28:14;;;;;;;6.38;5.35;;;;;;;25.00;55.21;100284.81;4914723;28;101491;-85
2021/07/19 05:30:45;;;;;;;9.77;5.50;;;;;;;25.30;54.79;100284.56;4915213;28;96703;-86
2021/07/19 05:33:12;;;;;;;7.45;5.28;;;;;;;25.62;53.93;100290.50;4915504;28;97003;-85
2021/07/19 05:35:38;;;;;;;8.45;5.55;;;;;;;25.72;53.88;100299.38;4914749;28;100675;-89
2021/07/19 05:38:04;;;;;;;13.65;5.53;;;;;;;25.97;52.88;100295.13;4915373;28;99064;-85
2021/07/19 05:40:31;;;;;;;8.43;5.57;;;;;;;26.20;52.59;100290.13;4899391;28;97243;-85
2021/07/19 05:42:59;;;;;;;10.85;5.68;;;;;;;26.28;52.41;100298.28;4915063;28;97185;-85
2021/07/19 05:45:25;;;;;;;18.73;5.93;;;;;;;26.41;52.01;100296.06;4898451;28;101227;-85
2021/07/19 05:47:51;;;;;;;8.93;5.55;;;;;;;26.81;51.50;100297.38;4882617;28;101142;-85
2021/07/19 05:50:17;;;;;;;12.93;5.72;;;;;;;26.88;50.94;100300.31;4915202;28;96571;-85
2021/07/19 05:52:42;;;;;;;11.25;5.65;;;;;;;27.40;49.96;100294.03;4898357;28;97036;-86
2021/07/19 05:55:08;;;;;;;6.65;5.53;;;;;;;27.98;47.92;100306.72;4914881;28;98088;-85
2021/07/19 05:57:34;;;;;;;8.50;5.57;;;;;;;28.62;46.98;100302.44;4898344;28;100978;-85
2021/07/19 06:00:00;;;;;;;9.52;6.13;;;;;;;29.52;44.51;100296.81;4877733;28;96751;-85
2021/07/19 06:02:29;;;;;;;8.68;5.88;;;;;;;30.26;42.78;100295.63;4885373;28;98247;-85
2021/07/19 06:04:55;;;;;;;8.45;5.32;;;;;;;30.80;41.99;100293.63;4898139;28;97860;-85
2021/07/19 06:07:21;;;;;;;8.55;6.05;;;;;;;30.71;42.00;100302.00;4882048;28;100927;-86
2021/07/19 06:09:47;;;;;;;8.82;6.22;;;;;;;30.45;41.77;100298.66;4897415;28;96705;-86
2021/07/19 06:12:15;;;;;;;8.57;6.20;;;;;;;30.68;41.14;100295.09;4889010;28;96962;-85
2021/07/19 06:14:41;;;;;;;9.02;6.20;;;;;;;29.21;43.23;100307.59;4898654;28;98558;-87
2021/07/19 06:17:07;;;;;;;12.32;6.40;;;;;;;28.29;45.51;100306.13;4908390;28;98243;-85
2021/07/19 06:19:32;;;;;;;13.50;6.68;;;;;;;27.66;47.46;100305.59;4867393;28;97462;-86
2021/07/19 06:21:58;;;;;;;11.60;7.18;;;;;;;27.38;47.40;100305.00;4884657;28;96932;-85
2021/07/19 06:24:24;;;;;;;9.85;5.65;;;;;;;27.48;47.18;100307.56;4885166;28;98236;-84
2021/07/19 06:26:49;;;;;;;9.57;6.80;;;;;;;27.23;48.38;100306.59;4929895;28;98060;-84
2021/07/19 06:29:15;;;;;;;10.75;6.78;;;;;;;27.01;48.31;100310.66;4897998;28;96879;-88
2021/07/19 06:31:40;;;;;;;9.50;6.50;;;;;;;26.86;48.84;100305.00;4877320;28;97253;-92
2021/07/19 06:34:08;;;;;;;9.50;6.60;;;;;;;26.81;48.25;100304.63;4877465;28;101319;-84
2021/07/19 06:36:34;;;;;;;9.27;6.35;;;;;;;26.77;48.42;100289.78;4862720;28;101725;-86
2021/07/19 06:39:01;;;;;;;7.95;6.07;;;;;;;26.90;48.14;100297.44;4876503;28;96950;-86
2021/07/19 06:41:26;;;;;;;12.90;7.43;;;;;;;27.16;47.87;100297.47;4894563;28;97340;-85
2021/07/19 06:43:52;;;;;;;11.73;6.78;;;;;;;27.90;45.88;100299.47;4893489;28;101546;-85
2021/07/19 06:46:17;;;;;;;10.90;6.50;;;;;;;27.43;47.84;100307.19;4878263;28;101201;-86
2021/07/19 06:48:43;;;;;;;11.98;6.32;;;;;;;27.01;48.89;100295.31;4878137;28;96789;-86
2021/07/19 06:51:08;;;;;;;9.60;5.95;;;;;;;28.51;45.97;100300.09;4878484;28;97168;-86
2021/07/19 06:53:37;;;;;;;7.97;6.63;;;;;;;30.60;42.59;100292.44;4893514;28;102099;-86
2021/07/19 06:56:07;;;;;;;8.70;6.13;;;;;;;30.55;42.14;100303.00;4892069;28;100852;-84
2021/07/19 06:58:32;;;;;;;10.63;6.70;;;;;;;29.37;43.95;100312.09;4876581;28;96958;-82
2021/07/19 07:00:58;;;;;;;6.88;5.78;;;;;;;28.59;45.28;100301.91;4876668;28;97021;-89
2021/07/19 07:03:24;;;;;;;11.27;6.57;;;;;;;28.59;44.69;100304.63;4891712;28;100911;-82
2021/07/19 07:05:49;;;;;;;8.25;6.05;;;;;;;29.49;42.55;100302.56;4875161;28;100671;-89
2021/07/19 07:08:15;;;;;;;8.45;6.35;;;;;;;28.97;43.51;100300.34;4883741;28;97256;-90
2021/07/19 07:10:40;;;;;;;9.48;6.03;;;;;;;28.69;44.64;100309.88;4887123;28;97116;-86
2021/07/19 07:13:09;;;;;;;8.90;5.90;;;;;;;28.57;45.40;100318.31;4926326;28;98071;-84
2021/07/19 07:15:41;;;;;;;12.45;6.88;;;;;;;28.23;45.31;100313.03;4910941;28;101176;-86
2021/07/19 07:18:07;;;;;;;11.65;5.53;;;;;;;28.16;45.76;100307.44;4909699;28;96705;-85
2021/07/19 07:20:33;;;;;;;9.00;5.72;;;;;;;29.41;43.48;100282.84;4894090;28;97193;-85
2021/07/19 07:22:59;;;;;;;9.73;6.57;;;;;;;30.52;40.86;100284.41;4867702;28;100957;-85
2021/07/19 07:25:24;;;;;;;7.90;6.15;;;;;;;30.96;39.78;100287.22;4905467;28;101152;-85
2021/07/19 07:27:50;;;;;;;10.85;5.75;;;;;;;30.08;40.42;100279.63;4900444;28;97424;-84
2021/07/19 07:30:16;;;;;;;10.18;6.07;;;;;;;29.23;42.41;100281.22;4901978;28;97404;-83
2021/07/19 07:32:43;;;;;;;9.38;6.10;;;;;;;29.30;43.04;100274.13;4886854;28;100583;-83
2021/07/19 07:35:09;;;;;;;9.38;6.15;;;;;;;29.39;42.88;100276.78;4902102;28;101434;-83
2021/07/19 07:37:39;;;;;;;8.57;5.85;;;;;;;29.20;43.36;100273.47;4901567;28;97146;-85
2021/07/19 07:40:10;;;;;;;11.57;6.47;;;;;;;29.17;43.60;100279.22;4901037;28;97361;-86
2021/07/19 07:42:36;;;;;;;14.70;6.28;;;;;;;28.97;44.38;100276.03;4905790;28;101108;-85
2021/07/19 07:45:03;;;;;;;7.68;5.72;;;;;;;29.05;43.63;100275.22;4901279;28;97991;-86
2021/07/19 07:47:29;;;;;;;9.27;6.43;;;;;;;29.08;43.65;100274.88;4870222;28;97394;-84
2021/07/19 07:49:55;;;;;;;8.13;6.63;;;;;;;31.17;39.03;100270.22;4918951;28;97299;-86
2021/07/19 07:52:21;;;;;;;10.15;6.38;;;;;;;32.99;36.63;100276.34;4904985;28;100253;-85
2021/07/19 07:54:46;;;;;;;11.85;6.80;;;;;;;34.11;35.05;100266.97;4897197;28;101376;-91
2021/07/19 07:57:12;;;;;;;12.68;6.20;;;;;;;34.75;34.17;100270.16;4905325;28;96763;-92
2021/07/19 07:59:38;;;;;;;9.18;6.65;;;;;;;34.38;35.13;100273.25;4909182;28;97312;-92
2021/07/19 08:02:04;;;;;;;8.60;6.10;;;;;;;32.90;36.78;100278.34;4885797;28;100273;-90
2021/07/19 08:04:30;;;;;;;11.27;6.40;;;;;;;32.21;37.94;100278.16;4886127;28;101229;-86
2021/07/19 08:06:56;;;;;;;8.02;5.68;;;;;;;31.54;39.24;100277.41;4883764;28;97648;-88
2021/07/19 08:09:22;;;;;;;10.95;6.60;;;;;;;30.95;40.40;100276.56;4907132;28;97394;-86
2021/07/19 08:11:48;;;;;;;9.43;6.97;;;;;;;30.55;41.09;100278.63;4881579;28;100995;-87
2021/07/19 08:14:13;;;;;;;8.05;6.43;;;;;;;30.18;41.77;100277.53;4890777;28;101816;-94
2021/07/19 08:16:39;;;;;;;11.88;7.13;;;;;;;29.70;42.89;100274.97;4896397;28;96763;-94
2021/07/19 08:19:09;;;;;;;10.05;6.03;;;;;;;29.53;44.33;100274.19;4891711;28;96890;-94
2021/07/19 08:21:36;;;;;;;11.63;6.60;;;;;;;30.47;42.53;100265.16;4910267;28;101201;-92
2021/07/19 08:24:02;;;;;;;12.75;6.55;;;;;;;30.64;42.23;100267.53;4873788;28;101084;-91
2021/07/19 08:26:28;;;;;;;17.58;6.63;;;;;;;30.44;42.13;100278.03;4913221;28;96773;-91
2021/07/19 08:28:55;;;;;;;8.85;7.22;;;;;;;30.25;42.50;100272.25;4907640;28;96782;-92
2021/07/19 08:31:25;;;;;;;8.60;6.72;;;;;;;29.92;42.64;100275.19;4916984;28;98319;-94
2021/07/19 08:33:50;;;;;;;9.43;6.87;;;;;;;29.26;44.05;100280.88;4891834;28;101521;-92
2021/07/19 08:36:16;;;;;;;12.60;7.50;;;;;;;29.22;44.61;100279.53;4893206;28;97119;-93
2021/07/19 08:38:41;;;;;;;9.45;7.18;;;;;;;28.91;44.01;100282.13;4920664;28;97562;-94
2021/07/19 08:41:07;;;;;;;14.50;8.43;;;;;;;28.62;44.87;100279.97;4905775;28;101841;-93
2021/07/19 08:43:35;;;;;;;12.65;7.38;;;;;;;28.31;45.96;100280.66;4901534;28;99940;-92
2021/07/19 08:46:01;;;;;;;12.10;8.20;;;;;;;28.07;46.14;100288.69;4915035;28;96600;-90
2021/07/19 08:48:27;;;;;;;11.13;7.75;;;;;;;27.97;46.56;100302.34;4914947;28;97390;-93
2021/07/19 08:50:53;;;;;;;11.63;7.88;;;;;;;27.85;46.93;100300.97;4902436;28;98542;-93
2021/07/19 08:53:19;;;;;;;9.75;7.13;;;;;;;27.91;46.87;100303.00;4905762;28;101762;-90
2021/07/19 08:55:49;;;;;;;10.52;6.75;;;;;;;28.71;45.80;100299.72;4891430;28;97391;-94
2021/07/19 08:58:15;;;;;;;11.80;8.23;;;;;;;28.72;45.24;100307.66;4905936;28;97763;-93
2021/07/19 09:00:42;;;;;;;12.57;7.13;;;;;;;28.74;45.87;100312.88;4922430;28;101279;-91
2021/07/19 09:03:07;;;;;;;12.50;7.00;;;;;;;28.44;46.17;100308.00;4924571;28;101053;-88
2021/07/19 09:05:33;;;;;;;11.27;7.53;;;;;;;28.28;46.34;100305.28;4907882;28;96884;-94
2021/07/19 09:08:00;;;;;;;14.77;7.45;;;;;;;28.04;46.75;100308.75;4890340;28;96840;-93
2021/07/19 09:10:26;;;;;;;8.95;7.32;;;;;;;27.80;47.36;100314.09;4909411;28;101380;-94
2021/07/19 09:12:52;;;;;;;8.57;7.40;;;;;;;27.57;47.91;100320.06;4892742;28;101315;-90
2021/07/19 09:15:30;;;;;;;10.93;8.32;;;;;;;27.31;48.52;100315.59;4893215;28;97037;-95
2021/07/19 09:17:57;;;;;;;10.68;8.35;;;;;;;27.28;48.69;100320.41;4924450;28;96782;-94
2021/07/19 09:20:31;;;;;;;10.43;7.82;;;;;;;26.95;48.66;100316.66;4918521;28;101332;-94
2021/07/19 09:22:57;;;;;;;9.20;7.57;;;;;;;26.54;49.31;100319.06;4901700;28;101019;-94
2021/07/19 09:25:23;;;;;;;10.55;7.47;;;;;;;26.61;49.15;100325.50;4870845;28;97273;-93
2021/07/19 09:27:54;;;;;;;13.25;7.20;;;;;;;26.50;49.72;100325.75;4913941;28;97087;-88
2021/07/19 09:30:22;;;;;;;9.32;7.78;;;;;;;26.14;50.45;100317.66;4897092;28;98577;-91
2021/07/19 09:33:22;;;;;;;11.77;8.57;;;;;;;25.97;50.87;100320.16;4901335;28;97470;-94
2021/07/19 09:35:49;;;;;;;8.37;7.00;;;;;;;25.96;50.97;100318.47;4909718;28;96862;-92
2021/07/19 09:38:17;;;;;;;12.98;9.02;;;;;;;25.89;51.62;100325.47;4904274;28;97223;-94
2021/07/19 09:40:44;;;;;;;15.63;9.50;;;;;;;26.01;52.27;100319.88;4913501;28;98033;-91
2021/07/19 09:43:24;;;;;;;15.75;8.63;;;;;;;25.84;52.33;100324.22;4877360;28;100983;-91
2021/07/19 09:46:04;;;;;;;15.82;8.90;;;;;;;25.75;52.89;100328.63;4876243;28;97384;-88
2021/07/19 09:48:30;;;;;;;13.20;9.63;;;;;;;25.61;53.33;100331.81;4905524;28;97292;-91
2021/07/19 09:50:56;;;;;;;18.73;8.82;;;;;;;25.67;53.51;100337.44;4906822;28;101976;-92
2021/07/19 09:53:38;;;;;;;12.48;7.32;;;;;;;25.89;52.56;100336.22;4909449;28;98071;-92
2021/07/19 09:56:12;;;;;;;11.00;7.28;;;;;;;25.82;52.38;100335.13;4910402;28;97045;-89
2021/07/19 09:58:40;;;;;;;11.43;8.25;;;;;;;26.03;51.67;100334.84;4888183;28;96795;-91
2021/07/19 10:01:05;;;;;;;11.05;7.50;;;;;;;26.25;51.42;100338.94;4902916;28;98032;-94
2021/07/19 10:03:31;;;;;;;10.57;7.10;;;;;;;26.28;51.26;100338.63;4899608;28;97824;-86
2021/07/19 10:06:06;;;;;;;9.57;7.28;;;;;;;26.30;51.11;100341.19;4895907;28;97118;-86
2021/07/19 10:08:32;;;;;;;8.75;6.32;;;;;;;26.19;51.03;100344.94;4916557;28;97257;-90
2021/07/19 10:10:58;;;;;;;12.25;6.60;;;;;;;26.40;50.21;100344.63;4902115;28;98375;-90
2021/07/19 10:13:34;;;;;;;10.45;6.38;;;;;;;26.41;50.05;100347.19;4917503;28;97966;-86
2021/07/19 10:16:01;;;;;;;8.75;5.88;;;;;;;27.11;48.63;100338.31;4902587;28;96846;-88
2021/07/19 10:18:30;;;;;;;16.95;6.60;;;;;;;27.80;47.97;100347.31;4882422;28;97175;-84
2021/07/19 10:20:56;;;;;;;8.18;6.10;;;;;;;27.88;47.24;100339.25;4898471;28;98617;-85
2021/07/19 10:23:21;;;;;;;11.20;5.90;;;;;;;28.07;46.76;100345.34;4900449;28;101375;-84
2021/07/19 10:25:47;;;;;;;8.88;5.20;;;;;;;27.61;47.17;100340.31;4902361;28;96826;-86
2021/07/19 10:28:14;;;;;;;9.20;5.43;;;;;;;27.72;46.61;100337.31;4900875;28;97543;-85
2021/07/19 10:30:40;;;;;;;10.07;5.25;;;;;;;27.74;46.17;100342.53;4915999;28;98037;-85
2021/07/19 10:33:06;;;;;;;6.43;4.90;;;;;;;27.62;46.15;100338.44;4884809;28;100077;-90
2021/07/19 10:35:32;;;;;;;9.73;4.90;;;;;;;27.54;46.50;100332.00;4917026;28;97016;-84
2021/07/19 10:38:02;;;;;;;9.30;4.97;;;;;;;27.91;46.21;100336.22;4901566;28;97332;-86
2021/07/19 10:40:29;;;;;;;8.93;4.75;;;;;;;27.84;46.23;100332.50;4916417;28;98060;-85
2021/07/19 10:43:10;;;;;;;7.10;4.20;;;;;;;28.04;46.11;100335.72;4885369;28;100880;-82
2021/07/19 10:45:58;;;;;;;8.15;4.50;;;;;;;27.40;46.72;100329.94;4886230;28;97237;-85
2021/07/19 10:48:31;;;;;;;5.85;4.10;;;;;;;27.09;47.18;100340.34;4902679;28;97087;-85
2021/07/19 10:51:12;;;;;;;9.23;4.65;;;;;;;27.13;47.06;100336.31;4881497;28;101709;-84
2021/07/19 10:53:38;;;;;;;7.53;4.30;;;;;;;27.18;47.33;100334.03;4883664;28;97388;-85
2021/07/19 10:56:04;;;;;;;11.32;5.40;;;;;;;27.48;47.22;100337.19;4901846;28;97283;-86
2021/07/19 10:58:44;;;;;;;9.07;4.85;;;;;;;27.29;47.19;100336.44;4908747;28;97253;-85
2021/07/19 11:01:24;;;;;;;5.68;4.40;;;;;;;27.42;47.80;100332.47;4910652;28;101554;-89
2021/07/19 11:03:50;;;;;;;8.65;4.75;;;;;;;27.19;48.24;100335.69;4896503;28;100442;-91
2021/07/19 11:06:17;;;;;;;7.32;4.30;;;;;;;26.99;48.21;100326.13;4900464;28;96727;-91
2021/07/19 11:08:50;;;;;;;6.18;3.80;;;;;;;27.04;47.92;100330.03;4901814;28;97019;-92
2021/07/19 11:11:26;;;;;;;8.73;4.22;;;;;;;27.11;47.09;100335.59;4917034;28;101892;-92
2021/07/19 11:14:06;;;;;;;7.07;4.35;;;;;;;27.08;46.34;100327.84;4899218;28;98961;-91
2021/07/19 11:16:45;;;;;;;8.35;4.50;;;;;;;26.93;47.00;100329.44;4903610;28;97137;-91
2021/07/19 11:19:12;;;;;;;8.80;4.78;;;;;;;26.96;47.17;100331.81;4908140;28;97266;-86
2021/07/19 11:21:39;;;;;;;7.93;4.32;;;;;;;26.95;46.52;100327.44;4878934;28;101546;-90
2021/07/19 11:24:17;;;;;;;8.15;4.20;;;;;;;26.82;46.49;100325.16;4913209;28;98301;-91
2021/07/19 11:26:48;;;;;;;7.03;4.50;;;;;;;26.88;47.46;100327.25;4900246;28;96937;-91